Flight Track Log - Related Links

Times and Time Zones

All times are in EDT time to prevent confusion due to time zone crossing. See the UAL4234 flight status page for this flight to view local times or setup timezone preferences in your user account.

Time Position Orientation Groundspeed Altitude Reporting Facility
EDT Latitude Longitude Course Direction KTS MPH feet Rate Location/Type
Wed 10:04:00 AM 45.2667 -75.7333 227° Southwest 200 230 2,800  Level Montreal Center
Wed 10:05:00 AM 45.2500 -75.8000 250° West 210 242 5,000 1,950 Climbing Montreal Center
Wed 10:06:00 AM 45.2667 -75.9000 283° West 250 288 6,700 1,950 Climbing Montreal Center
Wed 10:07:00 AM 45.1663 -76.2185 252° West  Level FlightAware Approximate
Wed 10:07:00 AM 45.2833 -76.0000 283° West 250 288 8,900  Level Montreal Center
Wed 10:08:00 AM 45.1401 -76.3320 252° West  Level FlightAware Approximate
Wed 10:08:00 AM 45.2833 -76.1167 270° West 270 311 10,300  Level Montreal Center
Wed 10:09:00 AM 45.2667 -76.2333 259° West 310 357 10,900 750 Climbing Montreal Center
Wed 10:10:00 AM 45.2667 -76.3500 270° West 340 391 11,800 1,067 Climbing Montreal Center
Wed 10:10:30 AM 45.2667 -76.4167 270° West 340 391 12,500 1,267 Climbing Toronto Center
Wed 10:11:30 AM 45.2500 -76.5333 259° West 350 403 13,700 1,210 Climbing Toronto Center
Wed 10:12:29 AM 45.2667 -76.6667 280° West 350 403 14,900 1,250 Climbing Toronto Center
Wed 10:13:30 AM 45.2500 -76.8167 261° West 350 403 16,200 1,240 Climbing Toronto Center
Wed 10:14:30 AM 45.2167 -76.9333 248° West 340 391 17,400 1,150 Climbing Toronto Center
Wed 10:15:30 AM 45.1833 -77.0833 253° West 340 391 18,500 1,133 Climbing Toronto Center
Wed 10:16:00 AM 45.1833 -77.1500 270° West 330 380 19,100 1,200 Climbing Montreal Center
Wed 10:17:00 AM 45.1500 -77.2667 248° West 330 380 20,300 1,267 Climbing Montreal Center
Wed 10:17:30 AM 45.1167 -77.3167 227° Southwest 330 380 21,000 1,267 Climbing Toronto Center
Wed 10:18:30 AM 45.1167 -77.4333 270° West 330 380 22,200 1,200 Climbing Toronto Center
Wed 10:19:30 AM 45.0833 -77.5500 248° West 330 380 23,400 1,250 Climbing Toronto Center
Wed 10:20:30 AM 45.0500 -77.6667 248° West 330 380 24,700 1,250 Climbing Toronto Center
Wed 10:21:30 AM 45.0167 -77.8000 251° West 320 368 25,900 1,150 Climbing Toronto Center
Wed 10:22:30 AM 44.9833 -77.9167 248° West 320 368 27,000 1,050 Climbing Toronto Center
Wed 10:23:30 AM 44.9500 -78.0500 251° West 320 368 28,000 1,050 Climbing Toronto Center
Wed 10:24:30 AM 44.9167 -78.1500 245° Southwest 320 368 29,100 1,050 Climbing Toronto Center
Wed 10:25:30 AM 44.8833 -78.2667 248° West 320 368 30,100 1,000 Climbing Toronto Center
Wed 10:26:30 AM 44.8500 -78.4167 253° West 320 368 31,100 1,050 Climbing Toronto Center
Wed 10:27:30 AM 44.8333 -78.5333 259° West 320 368 32,200 1,100 Climbing Toronto Center
Wed 10:28:30 AM 44.8000 -78.6500 248° West 320 368 33,300 1,000 Climbing Toronto Center
Wed 10:29:30 AM 44.7833 -78.7667 259° West 320 368 34,200 1,000 Climbing Toronto Center
Wed 10:30:30 AM 44.7333 -78.8500 230° Southwest 310 357 35,300 900 Climbing Toronto Center
Wed 10:31:30 AM 44.7000 -78.9833 251° West 300 345 36,000 350 Climbing Toronto Center
Wed 10:32:30 AM 44.6667 -79.0667 241° Southwest 310 357 36,000  Level Toronto Center
Wed 10:33:30 AM 44.6167 -79.1833 239° Southwest 330 380 36,000  Level Toronto Center
Wed 10:34:30 AM 44.5833 -79.3000 248° West 350 403 36,000  Level Toronto Center
Wed 10:35:30 AM 44.5333 -79.4500 245° Southwest 360 414 36,000  Level Toronto Center
Wed 10:36:30 AM 44.4833 -79.5667 239° Southwest 360 414 36,000  Level Toronto Center
Wed 10:37:30 AM 44.4333 -79.7000 242° Southwest 360 414 36,000  Level Toronto Center
Wed 10:38:30 AM 44.3833 -79.8167 239° Southwest 360 414 36,000  Level Toronto Center
Wed 10:39:30 AM 44.3333 -79.9333 239° Southwest 360 414 36,000  Level Toronto Center
Wed 10:40:30 AM 44.3000 -80.0500 248° West 360 414 36,000  Level Toronto Center
Wed 10:41:30 AM 44.2500 -80.1833 242° Southwest 360 414 36,000  Level Toronto Center
Wed 10:42:30 AM 44.2000 -80.3000 239° Southwest 360 414 36,000  Level Toronto Center
Wed 10:43:30 AM 44.1667 -80.4167 248° West 350 403 36,000  Level Toronto Center
Wed 10:44:30 AM 44.1167 -80.5667 245° Southwest 350 403 36,000  Level Toronto Center
Wed 10:45:30 AM 44.0667 -80.6833 239° Southwest 350 403 36,000  Level Toronto Center
Wed 10:46:30 AM 44.0167 -80.8000 239° Southwest 350 403 36,000  Level Toronto Center
Wed 10:47:30 AM 43.9667 -80.9000 235° Southwest 350 403 36,000  Level Toronto Center
Wed 10:48:30 AM 43.9167 -81.0167 239° Southwest 350 403 36,000  Level Toronto Center
Wed 10:49:30 AM 43.8667 -81.1333 239° Southwest 360 414 36,000  Level Toronto Center
Wed 10:50:30 AM 43.8167 -81.2667 243° Southwest 360 414 36,000  Level Toronto Center
Wed 10:51:30 AM 43.7833 -81.3833 248° West 370 426 36,000  Level Toronto Center
Wed 10:52:30 AM 43.7333 -81.5333 245° Southwest 370 426 36,000  Level Toronto Center
Wed 10:53:30 AM 43.6833 -81.6333 235° Southwest 370 426 36,000  Level Toronto Center
Wed 10:54:30 AM 43.6333 -81.7833 245° Southwest 370 426 36,000  Level Toronto Center
Wed 10:55:30 AM 43.5833 -81.8833 235° Southwest 360 414 36,000  Level Toronto Center
Wed 10:56:30 AM 43.5333 -82.0000 239° Southwest 360 414 36,000  Level Toronto Center
Wed 10:57:30 AM 43.4833 -82.1333 243° Southwest 360 414 36,000  Level Toronto Center
Wed 10:58:30 AM 43.4333 -82.2500 239° Southwest 360 414 36,000  Level Toronto Center
Wed 10:59:30 AM 43.3833 -82.3667 240° Southwest 360 414 36,000  Level Toronto Center
Wed 11:00:30 AM 43.3333 -82.5000 243° Southwest 360 414 36,000  Level Toronto Center
Wed 11:01:30 AM 43.2833 -82.6167 240° Southwest 360 414 36,000  Level Toronto Center
Wed 11:02:30 AM 43.2333 -82.7167 236° Southwest 360 414 36,000  Level Toronto Center
Wed 11:03:30 AM 43.2000 -82.8500 251° West 360 414 36,000  Level Toronto Center
Wed 11:04:30 AM 43.1667 -83.0000 253° West 370 426 36,000  Level Toronto Center
Wed 11:05:30 AM 43.1333 -83.1333 251° West 370 426 36,000  Level Toronto Center
Wed 11:06:30 AM 43.0833 -83.2667 243° Southwest 380 437 36,000 -150 Level Toronto Center
Wed 11:07:30 AM 43.0500 -83.4000 251° West 380 437 35,700 -900 Descending Toronto Center
Wed 11:08:30 AM 43.0167 -83.5333 251° West 360 414 34,200 -1,500 Descending Toronto Center
Wed 11:09:30 AM 42.9833 -83.6500 249° West 360 414 32,700 -1,100 Descending Toronto Center
Wed 11:10:30 AM 42.9500 -83.8000 253° West 380 437 32,000 -365 Descending Toronto Center
Wed 11:11:25 AM 42.9497 -83.9189 270° West 396 456 32,000  Level Chicago Center
Wed 11:11:55 AM 42.9406 -84.0122 262° West 406 467 32,000  Level Cleveland Center
Wed 11:12:55 AM 42.9258 -84.1617 262° West 406 467 32,000  Level Cleveland Center
Wed 11:13:28 AM 42.9206 -84.2189 263° West 401 461 32,000  Level Chicago Center
Wed 11:14:30 AM 42.9061 -84.3694 263° West 401 461 32,000  Level Chicago Center
Wed 11:15:32 AM 42.8886 -84.5481 262° West 399 459 32,000  Level Chicago Center
Wed 11:16:34 AM 42.8722 -84.6964 261° West 398 458 32,000  Level Chicago Center
Wed 11:17:36 AM 42.8567 -84.8461 262° West 400 460 32,000  Level Chicago Center
Wed 11:18:38 AM 42.8411 -84.9983 262° West 404 465 32,000  Level Chicago Center
Wed 11:19:40 AM 42.8256 -85.1489 262° West 404 465 32,000  Level Chicago Center
Wed 11:20:41 AM 42.8083 -85.2992 261° West 403 464 32,000 -293 Level Chicago Center
Wed 11:21:43 AM 42.7922 -85.4478 262° West 399 459 31,400 -1,548 Descending Chicago Center
Wed 11:22:45 AM 42.7644 -85.6186 258° West 383 441 28,800 -2,371 Descending Chicago Center
Wed 11:23:47 AM 42.7386 -85.7672 257° West 397 457 26,500 -2,177 Descending Chicago Center
Wed 11:24:49 AM 42.7094 -85.9242 256° West 419 482 24,300 -2,129 Descending Chicago Center
Wed 11:25:51 AM 42.6800 -86.0833 256° West 430 495 22,100 -2,049 Descending Chicago Center
Wed 11:26:52 AM 42.6528 -86.2353 256° West 418 481 20,100 -1,024 Descending Chicago Center
Wed 11:27:54 AM 42.6247 -86.3811 255° West 402 463 20,000 -194 Descending Chicago Center
Wed 11:28:56 AM 42.5969 -86.5267 256° West 398 458 19,700 -677 Descending Chicago Center
Wed 11:29:58 AM 42.5669 -86.6889 256° West 392 451 18,600 -1,597 Descending Chicago Center
Wed 11:31:00 AM 42.5308 -86.8392 252° West 393 452 16,400 -2,855 Descending Chicago Center
Wed 11:32:02 AM 42.4942 -86.9728 250° West 381 438 12,700 -3,122 Descending Chicago Center
Wed 11:33:03 AM 42.4567 -87.1017 249° West 370 426 10,000 -1,645 Descending Chicago Center
Wed 11:34:06 AM 42.4283 -87.2089 250° West 299 344 9,300 -774 Descending Chicago Center
Wed 11:35:07 AM 42.4014 -87.3058 249° West 277 319 8,400 -1,366 Descending Chicago Center
Wed 11:36:09 AM 42.3719 -87.4128 250° West 271 312 6,500 -1,210 Descending Chicago Center
Wed 11:37:11 AM 42.3089 -87.4333 194° South 260 299 5,900 -242 Descending Chicago Center
Wed 11:38:13 AM 42.2450 -87.4317 179° South 233 268 6,000 48 Climbing Chicago Center
Wed 11:39:15 AM 42.1831 -87.4317 180° South 225 259 6,000 -726 Level Chicago Center
Wed 11:40:17 AM 42.1078 -87.4300 179° South 227 261 4,500 -968 Descending Chicago Center
Wed 11:41:19 AM 42.0481 -87.4281 179° South 219 252 4,000 -242 Descending Chicago Center
Wed 11:42:21 AM 42.0036 -87.4694 215° Southwest 223 257 4,000  Level Chicago Center
Wed 11:43:23 AM 42.0014 -87.5486 268° West 219 252 4,000  Level Chicago Center
Wed 11:44:25 AM 42.0028 -87.6189 272° West 205 236 4,000 -242 Level Chicago Center
Wed 11:45:27 AM 42.0025 -87.7036 270° West 196 226 3,500 -726 Descending Chicago Center
Wed 11:46:29 AM 42.0028 -87.7736 270° West 193 222 2,500 -871 Descending Chicago Center
Wed 11:47:31 AM 42.0031 -87.8369 270° West 185 213 1,700 -774 Descending Chicago Center

Login

Don't have an account? Register now (free) for customized features, flight alerts, and more!